Airfield :
LOGIN :

Register | Disclaimer

   EN    FR    IT 

 










Legend :    VFR   Marginal VFR   IFR   Intensive IFR   Very Intensive IFR
Visi :
Ceiling :
>= 8 km
>= 3000ft
5 to 8 km
1000 to 3000 ft
1500m to 5 km
500 to 1000 ft
800 to 1500m
200 to 500 ft
< 800m
< 200 ft
Symbols :   Thunderstorms  Fog  Heavy snow  Heavy precipitations  Wind > 20 kt
SIGMETs :     Misc.  Thunderstorms  Icing  Turbulence  Mountain Waves  Volcanic Ashes







- Airport Elevation : 266 ft
- IATA code : NCL
- Download approach charts


EGNT - Newcastle

CURRENT METAR :
  • 201520Z 24010KT 200V270 9999 BKN017 15/12 Q1026

EXPIRED METARs :
  • 201450Z 24013KT 9999 BKN017 15/11 Q1026
  • 201420Z 22008KT 170V250 9999 BKN016 15/11 Q1026
  • 201350Z 22011KT 9999 VCSH BKN017 15/11 Q1026
  • 201320Z 23011KT 200V260 9999 -SHRA SCT016 15/12 Q1026
  • 201250Z 24013KT 9999 FEW020 16/11 Q1026

TAF TAF EGNT
Valid from the 20 at 12:00 until the 21 at 12:00 UTC


201102Z 2012/2112 21008KT 9999 FEW014 SCT030
PROB30
TEMPO 2012/2021 BKN012
TEMPO 2021/2112 7000 -RA FEW008 BKN012
PROB30
TEMPO 2023/2109 BKN009
BECMG 2109/2112 27010KT
ATIS : +44 191 214 3400
No reported NOTAMs for that airfield.
2 SIGMETs reported for the Scottish FIR (EGPX) :
 
Severe mountain waves
EGPX SIGMET 03 VALID 201500/201900 EGRR
EGPX SCOTTISH FIR SEV MTW FCST WI N5912 W00137 - N5652 W00031 - N5558 W00439 - N5817 W00635 - N5912 W00137 FL030/200 STNR NC=
Severe mountain waves
EGPX SIGMET 02 VALID 201100/201500 EGRR
EGPX SCOTTISH FIR SEV MTW FCST WI N5912 W00137 - N5652 W00031 - N5558 W00439 - N5817 W00635 - N5912 W00137 FL030/200 STNR NC=



MET'MAP, your aeronautical weather chart ! - Copyright ORBIFLY December 2007 - Disclaimer

ORBIFLY MET'MAP TEAM :

Programming & Development : Alexandra Zaïnal
Concept & Development : Baudouin d'Aumeries
Co-Development & Prog : Marc-Olivier Méhu
Technical & hardware support : Manuel Goepfert

Contact : metmap@orbifly.com




SOURCES & CREDITS :

   NOAA